Time;durP1;ratioP1;P1;durP2;ratioP2;P2;SDS_P1;SDS_P2;PMS_P1;PMS_P2;Temp;Humidity;BMP_temperature;BMP_pressure;BME280_temperature;BME280_humidity;BME280_pressure;Samples;Min_cycle;Max_cycle;Signal;HPM_P1;HPM_P2
2021/05/11 00:00:28;;;;;;;7.30;6.80;;;;;;;;;;5078300;28;20201;-86
2021/05/11 00:02:54;;;;;;;7.90;7.30;;;;;;;;;;5096985;28;20170;-86
2021/05/11 00:05:20;;;;;;;8.13;7.47;;;;;;;;;;5078721;28;20202;-86
2021/05/11 00:07:46;;;;;;;8.37;7.67;;;;;;;;;;5078560;28;20205;-86
2021/05/11 00:10:13;;;;;;;7.73;7.10;;;;;;;;;;5078328;28;20194;-85
2021/05/11 00:12:40;;;;;;;6.97;6.47;;;;;;;;;;5078360;28;20252;-86
2021/05/11 00:15:07;;;;;;;7.97;7.20;;;;;;;;;;5077844;28;20209;-85
2021/05/11 00:17:33;;;;;;;8.07;7.47;;;;;;;;;;5095083;28;20182;-86
2021/05/11 00:19:59;;;;;;;7.80;7.20;;;;;;;;;;5078266;28;20186;-86
2021/05/11 00:22:26;;;;;;;8.23;7.40;;;;;;;;;;5078324;28;20197;-86
2021/05/11 00:24:52;;;;;;;8.10;7.40;;;;;;;;;;5078333;28;20209;-85
2021/05/11 00:27:18;;;;;;;7.70;7.10;;;;;;;;;;5077855;28;20578;-86
2021/05/11 00:29:45;;;;;;;7.60;6.90;;;;;;;;;;5077925;28;20190;-86
2021/05/11 00:32:11;;;;;;;7.33;6.73;;;;;;;;;;5095495;28;20257;-86
2021/05/11 00:34:37;;;;;;;7.47;6.87;;;;;;;;;;5095605;28;20568;-85
2021/05/11 00:37:03;;;;;;;8.33;7.13;;;;;;;;;;5095620;28;20274;-86
2021/05/11 00:39:30;;;;;;;7.60;7.00;;;;;;;;;;5077459;28;20198;-85
2021/05/11 00:41:56;;;;;;;7.93;7.33;;;;;;;;;;5077672;28;20204;-86
2021/05/11 00:44:23;;;;;;;7.57;7.07;;;;;;;;;;5077566;28;20208;-86
2021/05/11 00:46:56;;;;;;;8.10;7.50;;;;;;;;;;5077628;28;20198;-86
2021/05/11 00:49:22;;;;;;;8.30;7.60;;;;;;;;;;5077402;28;20194;-85
2021/05/11 00:51:48;;;;;;;8.33;7.63;;;;;;;;;;5077668;28;20221;-86
2021/05/11 00:54:14;;;;;;;8.17;7.47;;;;;;;;;;5095418;28;20208;-85
2021/05/11 00:56:41;;;;;;;8.73;6.50;;;;;;;;;;5095695;28;20174;-86
2021/05/11 00:59:12;;;;;;;7.10;6.43;;;;;;;;;;5077435;28;20197;-85
2021/05/11 01:01:38;;;;;;;7.20;6.60;;;;;;;;;;5077490;28;20597;-86
2021/05/11 01:04:05;;;;;;;7.83;7.23;;;;;;;;;;5095293;28;20634;-85
2021/05/11 01:06:31;;;;;;;6.83;6.33;;;;;;;;;;5077648;28;20673;-85
2021/05/11 01:08:58;;;;;;;7.27;6.67;;;;;;;;;;5076917;28;20251;-86
2021/05/11 01:11:24;;;;;;;6.67;6.10;;;;;;;;;;5077321;28;20231;-85
2021/05/11 01:13:51;;;;;;;5.93;5.43;;;;;;;;;;5076872;28;20198;-86
2021/05/11 01:16:17;;;;;;;5.60;5.20;;;;;;;;;;5076877;28;20599;-86
2021/05/11 01:18:44;;;;;;;5.80;5.30;;;;;;;;;;5077212;28;20251;-85
2021/05/11 01:21:23;;;;;;;5.90;5.50;;;;;;;;;;5094807;28;20210;-85
2021/05/11 01:24:06;;;;;;;5.63;5.23;;;;;;;;;;5094730;28;20213;-85
2021/05/11 01:26:37;;;;;;;5.30;5.00;;;;;;;;;;5094359;28;20230;-85
2021/05/11 01:29:14;;;;;;;5.07;4.70;;;;;;;;;;5094531;28;20210;-85
2021/05/11 01:32:07;;;;;;;5.30;4.83;;;;;;;;;;5094197;28;20700;-86
2021/05/11 01:48:28;;;;;;;3.53;3.33;;;;;;;;;;5073405;28;20260;-86
2021/05/11 01:51:08;;;;;;;3.83;3.60;;;;;;;;;;5073167;28;20264;-85
2021/05/11 01:53:47;;;;;;;3.53;3.10;;;;;;;;;;5074208;28;20265;-88
2021/05/11 01:56:35;;;;;;;3.40;3.20;;;;;;;;;;5072895;28;20213;-85
2021/05/11 02:10:49;;;;;;;2.83;2.63;;;;;;;;;;5074020;28;20221;-86
2021/05/11 02:24:33;;;;;;;2.37;2.27;;;;;;;;;;5073835;28;20197;-86
2021/05/11 02:26:59;;;;;;;2.93;2.30;;;;;;;;;;5072746;28;20222;-86
2021/05/11 02:29:26;;;;;;;2.50;2.30;;;;;;;;;;5073218;28;20206;-86
2021/05/11 02:31:52;;;;;;;2.67;2.57;;;;;;;;;;5072336;28;20214;-85
2021/05/11 02:34:18;;;;;;;2.33;2.23;;;;;;;;;;5073603;28;20185;-85
2021/05/11 02:36:45;;;;;;;2.50;2.30;;;;;;;;;;5072810;28;20716;-85
2021/05/11 02:39:11;;;;;;;1.90;1.90;;;;;;;;;;5073373;28;20573;-85
2021/05/11 02:41:40;;;;;;;2.37;2.27;;;;;;;;;;5075743;28;20256;-85
2021/05/11 02:44:06;;;;;;;3.50;1.90;;;;;;;;;;5076592;28;20248;-86
2021/05/11 02:46:33;;;;;;;2.30;2.20;;;;;;;;;;5076503;28;20194;-85
2021/05/11 02:49:00;;;;;;;2.10;2.00;;;;;;;;;;5076507;28;20578;-85
2021/05/11 02:51:26;;;;;;;2.93;1.97;;;;;;;;;;5076617;28;20194;-85
2021/05/11 02:53:52;;;;;;;2.00;2.00;;;;;;;;;;5076228;28;20245;-85
2021/05/11 02:56:18;;;;;;;2.33;2.13;;;;;;;;;;5075996;28;20281;-85
2021/05/11 02:58:48;;;;;;;2.20;1.90;;;;;;;;;;5076348;28;20216;-85
2021/05/11 03:01:14;;;;;;;1.70;1.70;;;;;;;;;;5076377;28;20562;-85
2021/05/11 03:03:41;;;;;;;2.13;2.03;;;;;;;;;;5077541;28;20237;-85
2021/05/11 03:06:08;;;;;;;2.30;2.10;;;;;;;;;;5076247;28;20666;-85
2021/05/11 03:08:34;;;;;;;2.00;1.90;;;;;;;;;;5076285;28;20252;-87
2021/05/11 03:11:00;;;;;;;2.53;2.33;;;;;;;;;;5075902;28;20206;-84
2021/05/11 03:13:26;;;;;;;2.20;2.10;;;;;;;;;;5075768;28;20245;-85
2021/05/11 03:15:52;;;;;;;2.80;2.23;;;;;;;;;;5077077;28;20229;-85
2021/05/11 03:18:18;;;;;;;2.60;2.27;;;;;;;;;;5075201;28;20206;-85
2021/05/11 03:20:45;;;;;;;2.60;2.33;;;;;;;;;;5075896;28;20666;-84
2021/05/11 03:23:11;;;;;;;2.40;2.30;;;;;;;;;;5075527;28;20198;-84
2021/05/11 03:25:37;;;;;;;2.73;2.00;;;;;;;;;;5075168;28;20611;-84
2021/05/11 03:28:04;;;;;;;2.07;1.97;;;;;;;;;;5075490;28;20186;-84
2021/05/11 03:30:30;;;;;;;2.33;2.13;;;;;;;;;;5075746;28;20199;-85
2021/05/11 03:32:56;;;;;;;2.80;2.60;;;;;;;;;;5076791;28;20257;-88
2021/05/11 03:35:22;;;;;;;2.30;2.20;;;;;;;;;;5075805;28;20193;-87
2021/05/11 03:37:49;;;;;;;2.53;2.40;;;;;;;;;;5076066;28;20665;-87
2021/05/11 03:40:16;;;;;;;2.60;2.20;;;;;;;;;;5076184;28;20197;-88
2021/05/11 03:42:50;;;;;;;2.03;1.87;;;;;;;;;;5075538;28;20199;-86
2021/05/11 03:45:17;;;;;;;2.40;2.30;;;;;;;;;;5076789;28;20218;-86
2021/05/11 03:47:45;;;;;;;2.27;2.17;;;;;;;;;;5075127;28;20237;-88
2021/05/11 03:50:12;;;;;;;2.50;2.30;;;;;;;;;;5076433;28;20210;-86
2021/05/11 03:52:38;;;;;;;2.30;2.20;;;;;;;;;;5074763;28;20771;-85
2021/05/11 03:55:06;;;;;;;2.60;2.40;;;;;;;;;;5075282;28;20199;-86
2021/05/11 03:57:32;;;;;;;2.50;2.37;;;;;;;;;;5075122;28;20203;-86
2021/05/11 03:59:58;;;;;;;2.23;2.13;;;;;;;;;;5075409;28;20197;-87
2021/05/11 04:02:25;;;;;;;2.20;2.10;;;;;;;;;;5075546;28;20190;-87
2021/05/11 04:04:51;;;;;;;3.03;2.40;;;;;;;;;;5075240;28;20210;-87
2021/05/11 04:07:17;;;;;;;2.20;2.10;;;;;;;;;;5075253;28;20777;-87
2021/05/11 04:09:46;;;;;;;2.37;2.27;;;;;;;;;;5076740;28;20184;-87
2021/05/11 04:12:38;;;;;;;3.47;2.10;;;;;;;;;;5075060;28;20667;-87
2021/05/11 04:17:48;;;;;;;2.40;2.30;;;;;;;;;;5074929;28;20244;-87
2021/05/11 04:20:15;;;;;;;2.00;2.00;;;;;;;;;;5075024;28;20214;-86
2021/05/11 04:22:41;;;;;;;2.40;2.20;;;;;;;;;;5074799;28;20202;-87
2021/05/11 04:25:08;;;;;;;3.17;2.23;;;;;;;;;;5075099;28;20256;-86
2021/05/11 04:27:35;;;;;;;2.27;2.17;;;;;;;;;;5074859;28;20276;-87
2021/05/11 04:30:04;;;;;;;2.30;2.13;;;;;;;;;;5074261;28;20739;-89
2021/05/11 04:32:31;;;;;;;2.40;2.20;;;;;;;;;;5075466;28;20245;-84
2021/05/11 04:34:57;;;;;;;2.50;2.30;;;;;;;;;;5074262;28;20206;-87
2021/05/11 04:37:23;;;;;;;2.30;2.20;;;;;;;;;;5074130;28;20202;-88
2021/05/11 04:39:49;;;;;;;2.50;2.40;;;;;;;;;;5075699;28;20271;-85
2021/05/11 04:42:15;;;;;;;3.07;2.30;;;;;;;;;;5075825;28;20217;-84
2021/05/11 04:44:42;;;;;;;2.87;2.67;;;;;;;;;;5073854;28;20206;-84
2021/05/11 04:47:12;;;;;;;4.77;2.80;;;;;;;;;;5073812;28;20253;-85
2021/05/11 04:49:38;;;;;;;4.47;2.90;;;;;;;;;;5074193;28;20229;-84
2021/05/11 04:52:05;;;;;;;2.60;2.50;;;;;;;;;;5075288;28;20206;-84
2021/05/11 04:54:31;;;;;;;3.10;2.90;;;;;;;;;;5073696;28;20221;-84
2021/05/11 04:56:57;;;;;;;2.63;2.53;;;;;;;;;;5074781;28;20751;-85
2021/05/11 04:59:23;;;;;;;2.70;2.60;;;;;;;;;;5075050;28;20564;-83
2021/05/11 05:01:52;;;;;;;2.70;2.50;;;;;;;;;;5073176;28;20225;-85
2021/05/11 05:04:18;;;;;;;3.63;2.50;;;;;;;;;;5074446;28;20186;-85
2021/05/11 05:06:44;;;;;;;2.30;2.20;;;;;;;;;;5073550;28;20202;-84
2021/05/11 05:09:11;;;;;;;2.17;2.07;;;;;;;;;;5073739;28;20195;-84
2021/05/11 05:11:40;;;;;;;2.67;2.57;;;;;;;;;;5074676;28;20221;-84
2021/05/11 05:14:06;;;;;;;2.60;2.50;;;;;;;;;;5074569;28;20233;-84
2021/05/11 05:16:33;;;;;;;3.30;2.30;;;;;;;;;;5072819;28;20228;-84
2021/05/11 05:19:00;;;;;;;2.83;2.33;;;;;;;;;;5074951;28;20182;-84
2021/05/11 05:21:26;;;;;;;2.33;2.23;;;;;;;;;;5074393;28;20207;-81
2021/05/11 05:24:01;;;;;;;2.60;2.40;;;;;;;;;;5074323;28;20236;-84
2021/05/11 05:26:29;;;;;;;2.50;2.33;;;;;;;;;;5072871;28;20222;-85
2021/05/11 05:28:56;;;;;;;2.57;2.40;;;;;;;;;;5074575;28;20183;-85
2021/05/11 05:31:23;;;;;;;2.53;2.40;;;;;;;;;;5073002;28;20532;-84
2021/05/11 05:33:49;;;;;;;2.10;2.00;;;;;;;;;;5074301;28;20284;-85
2021/05/11 05:36:16;;;;;;;2.10;2.00;;;;;;;;;;5072733;28;20202;-84
2021/05/11 05:38:42;;;;;;;2.20;2.10;;;;;;;;;;5074398;28;20658;-84
2021/05/11 05:41:09;;;;;;;2.43;2.33;;;;;;;;;;5072510;28;20202;-85
2021/05/11 05:43:35;;;;;;;2.30;2.10;;;;;;;;;;5072802;28;20519;-85
2021/05/11 05:46:02;;;;;;;2.30;2.20;;;;;;;;;;5074163;28;20179;-84
2021/05/11 05:48:28;;;;;;;2.70;2.50;;;;;;;;;;5072369;28;20777;-84
2021/05/11 05:50:56;;;;;;;2.67;2.30;;;;;;;;;;5073946;28;20678;-86
2021/05/11 05:53:27;;;;;;;2.87;2.63;;;;;;;;;;5072558;28;20223;-85
2021/05/11 05:55:53;;;;;;;2.63;2.43;;;;;;;;;;5073023;28;20194;-85
2021/05/11 05:58:20;;;;;;;2.53;2.27;;;;;;;;;;5074126;28;20210;-86
2021/05/11 06:00:47;;;;;;;2.83;2.63;;;;;;;;;;5072688;28;20195;-85
2021/05/11 06:03:33;;;;;;;2.67;2.47;;;;;;;;;;5072698;28;20194;-85
2021/05/11 06:06:00;;;;;;;2.57;2.30;;;;;;;;;;5074043;28;20179;-84
2021/05/11 06:08:27;;;;;;;2.57;2.37;;;;;;;;;;5072344;28;20202;-85
2021/05/11 06:10:57;;;;;;;2.50;2.30;;;;;;;;;;5072882;28;20228;-84
2021/05/11 06:13:29;;;;;;;2.30;2.20;;;;;;;;;;5073228;28;20302;-86
2021/05/11 06:18:39;;;;;;;3.73;2.30;;;;;;;;;;5072895;28;20228;-85
2021/05/11 06:21:05;;;;;;;2.30;1.93;;;;;;;;;;5072821;28;20190;-85
2021/05/11 06:23:32;;;;;;;2.10;1.93;;;;;;;;;;5072738;28;20562;-86
2021/05/11 06:25:58;;;;;;;2.13;2.03;;;;;;;;;;5072221;28;20276;-84
2021/05/11 06:28:25;;;;;;;2.20;2.10;;;;;;;;;;5072912;28;20202;-85
2021/05/11 06:30:51;;;;;;;2.47;2.37;;;;;;;;;;5073508;28;20210;-85
2021/05/11 06:33:17;;;;;;;2.53;2.33;;;;;;;;;;5072468;28;20284;-84
2021/05/11 06:35:44;;;;;;;2.80;2.70;;;;;;;;;;5072723;28;20229;-84
2021/05/11 06:38:10;;;;;;;2.63;2.53;;;;;;;;;;5071834;28;20207;-84
2021/05/11 06:40:39;;;;;;;2.90;2.47;;;;;;;;;;5072146;28;20551;-85
2021/05/11 06:43:05;;;;;;;2.70;2.50;;;;;;;;;;5073683;28;20214;-85
2021/05/11 06:48:19;;;;;;;2.97;2.33;;;;;;;;;;5035001;28;20304;-85
2021/05/11 06:53:27;;;;;;;3.50;2.97;;;;;;;;;;5051867;28;20263;-84
2021/05/11 06:55:54;;;;;;;2.37;2.27;;;;;;;;;;5051921;28;20203;-85
2021/05/11 06:58:20;;;;;;;2.13;2.03;;;;;;;;;;5052582;28;20200;-85
2021/05/11 07:00:46;;;;;;;2.10;2.00;;;;;;;;;;5053656;28;20172;-86
2021/05/11 07:03:12;;;;;;;2.13;2.03;;;;;;;;;;5053032;28;20195;-86
2021/05/11 07:05:39;;;;;;;2.63;2.43;;;;;;;;;;5053740;28;20211;-85
2021/05/11 07:08:09;;;;;;;2.40;2.30;;;;;;;;;;5052151;28;20192;-85
2021/05/11 07:10:36;;;;;;;2.37;2.27;;;;;;;;;;5053472;28;20172;-85
2021/05/11 07:13:13;;;;;;;2.40;2.30;;;;;;;;;;5051707;28;20238;-85
2021/05/11 07:15:41;;;;;;;1.97;1.87;;;;;;;;;;5051918;28;20568;-85
2021/05/11 07:18:07;;;;;;;1.70;1.70;;;;;;;;;;5052047;28;20192;-85
2021/05/11 07:20:34;;;;;;;2.03;1.93;;;;;;;;;;5052013;28;20207;-85
2021/05/11 07:23:00;;;;;;;2.03;1.90;;;;;;;;;;5051887;28;20195;-84
2021/05/11 07:25:30;;;;;;;2.07;1.97;;;;;;;;;;5051761;28;20218;-84
2021/05/11 07:30:40;;;;;;;2.07;1.97;;;;;;;;;;5048652;28;20980;-84
2021/05/11 07:33:08;;;;;;;2.23;2.03;;;;;;;;;;5055834;28;20616;-86
2021/05/11 07:35:36;;;;;;;1.93;1.83;;;;;;;;;;5056774;28;20211;-85
2021/05/11 07:38:02;;;;;;;2.00;1.90;;;;;;;;;;5055711;28;20203;-85
2021/05/11 07:40:28;;;;;;;2.20;2.10;;;;;;;;;;5057245;28;20219;-85
2021/05/11 07:42:54;;;;;;;2.93;1.90;;;;;;;;;;5056774;28;20211;-84
2021/05/11 07:45:29;;;;;;;2.00;1.90;;;;;;;;;;5054907;28;20325;-85
2021/05/11 07:48:15;;;;;;;4.53;2.07;;;;;;;;;;5064745;28;20226;-84
2021/05/11 08:02:01;;;;;;;2.30;2.20;;;;;;;;;;5074763;28;20252;-84
2021/05/11 08:04:35;;;;;;;1.90;1.80;;;;;;;;;;5074855;28;20232;-85
2021/05/11 08:15:21;;;;;;;1.87;1.80;;;;;;;;;;5074906;28;20228;-85
2021/05/11 08:17:52;;;;;;;1.93;1.83;;;;;;;;;;5075910;28;20211;-86
2021/05/11 08:20:41;;;;;;;1.90;1.80;;;;;;;;;;5075102;28;20198;-87
2021/05/11 08:28:51;;;;;;;1.50;1.50;;;;;;;;;;5033997;28;20234;-86
2021/05/11 08:31:17;;;;;;;1.60;1.57;;;;;;;;;;5057008;28;20203;-83
2021/05/11 08:33:44;;;;;;;1.90;1.80;;;;;;;;;;5075402;28;20731;-85
2021/05/11 08:36:11;;;;;;;2.87;2.00;;;;;;;;;;5073941;28;20206;-82
2021/05/11 08:38:37;;;;;;;2.03;1.93;;;;;;;;;;5074408;28;20653;-84
2021/05/11 08:41:03;;;;;;;2.00;1.93;;;;;;;;;;5073510;28;20300;-85
2021/05/11 08:43:31;;;;;;;2.03;1.63;;;;;;;;;;5074913;28;20215;-83
2021/05/11 08:45:57;;;;;;;3.80;1.70;;;;;;;;;;5075547;28;20206;-85
2021/05/11 08:48:23;;;;;;;1.57;1.57;;;;;;;;;;5089399;28;20229;-85
2021/05/11 08:50:55;;;;;;;2.10;2.00;;;;;;;;;;5094956;28;20209;-85
2021/05/11 08:53:57;;;;;;;2.20;2.00;;;;;;;;;;5076381;28;20252;-83
2021/05/11 09:05:00;;;;;;;2.10;1.60;;;;;;;;;;5069556;28;20291;-83
2021/05/11 09:07:50;;;;;;;3.43;1.90;;;;;;;;;;5094837;28;20182;-84
2021/05/11 09:24:17;;;;;;;2.20;2.10;;;;;;;;;;5076270;28;20722;-83
2021/05/11 09:26:48;;;;;;;2.50;2.00;;;;;;;;;;5075970;28;20217;-85
2021/05/11 09:29:28;;;;;;;1.90;1.80;;;;;;;;;;5094142;28;20214;-82
2021/05/11 09:32:02;;;;;;;2.07;2.00;;;;;;;;;;5076273;28;20235;-83
2021/05/11 09:34:36;;;;;;;1.60;1.60;;;;;;;;;;5075994;28;20568;-80
2021/05/11 09:52:00;;;;;;;1.53;1.50;;;;;;;;;;5076205;28;20239;-85
2021/05/11 09:54:30;;;;;;;1.87;1.77;;;;;;;;;;5075213;28;20758;-85
2021/05/11 09:57:08;;;;;;;1.90;1.70;;;;;;;;;;5094027;28;20217;-90
2021/05/11 10:00:16;;;;;;;2.53;1.90;;;;;;;;;;5076396;28;20251;-85
2021/05/11 10:42:03;;;;;;;2.40;2.20;;;;;;;;;;5094690;28;20310;-86
2021/05/11 10:45:08;;;;;;;1.80;1.80;;;;;;;;;;5076220;28;20194;-84
2021/05/11 10:47:34;;;;;;;1.73;1.70;;;;;;;;;;5072587;28;20230;-88
2021/05/11 10:50:01;;;;;;;1.50;1.50;;;;;;;;;;5072394;28;20335;-84
2021/05/11 10:52:36;;;;;;;5.23;1.70;;;;;;;;;;5073286;28;20576;-88
2021/05/11 10:55:08;;;;;;;5.60;1.50;;;;;;;;;;5072408;28;20240;-87
2021/05/11 10:57:40;;;;;;;1.43;1.37;;;;;;;;;;5073759;28;20183;-85
2021/05/11 11:00:27;;;;;;;2.10;1.57;;;;;;;;;;5072557;28;20195;-89
2021/05/11 11:03:07;;;;;;;1.43;1.33;;;;;;;;;;5076439;28;20616;-88
2021/05/11 11:05:41;;;;;;;3.10;1.20;;;;;;;;;;5076039;28;20194;-90
2021/05/11 11:08:26;;;;;;;1.60;1.50;;;;;;;;;;5076833;28;20548;-91
2021/05/11 11:10:53;;;;;;;1.30;1.20;;;;;;;;;;5076255;28;20206;-88
2021/05/11 11:13:20;;;;;;;1.63;1.57;;;;;;;;;;5077063;28;20191;-87
2021/05/11 11:15:47;;;;;;;1.20;1.20;;;;;;;;;;5076599;28;20199;-90
2021/05/11 11:18:20;;;;;;;1.47;1.47;;;;;;;;;;5076938;28;20650;-90
2021/05/11 11:20:48;;;;;;;1.33;1.33;;;;;;;;;;5076598;28;20190;-88
2021/05/11 11:23:33;;;;;;;1.30;1.30;;;;;;;;;;5076599;28;20194;-91
2021/05/11 11:26:04;;;;;;;2.37;1.53;;;;;;;;;;5076614;28;20260;-90
2021/05/11 11:28:31;;;;;;;5.10;1.40;;;;;;;;;;5076240;28;20225;-91
2021/05/11 11:30:57;;;;;;;1.70;1.60;;;;;;;;;;5077375;28;20198;-91
2021/05/11 11:33:23;;;;;;;1.57;1.30;;;;;;;;;;5078215;28;20211;-92
2021/05/11 11:35:50;;;;;;;1.63;1.50;;;;;;;;;;5077746;28;20210;-89
2021/05/11 11:38:20;;;;;;;1.33;1.33;;;;;;;;;;5076200;28;20195;-91
2021/05/11 11:40:46;;;;;;;1.50;1.43;;;;;;;;;;5077873;28;20570;-95
2021/05/11 11:43:24;;;;;;;3.60;1.50;;;;;;;;;;5077508;28;20225;-90
2021/05/11 11:45:50;;;;;;;1.43;1.43;;;;;;;;;;5077914;28;20642;-92
2021/05/11 11:48:20;;;;;;;1.70;1.60;;;;;;;;;;5091269;28;20253;-92
2021/05/11 11:50:53;;;;;;;1.20;1.20;;;;;;;;;;5079863;28;20193;-90
2021/05/11 11:53:22;;;;;;;1.57;1.47;;;;;;;;;;5079673;28;20186;-89
2021/05/11 11:58:32;;;;;;;2.10;1.50;;;;;;;;;;5072583;28;20255;-93
2021/05/11 12:00:58;;;;;;;1.40;1.40;;;;;;;;;;5097527;28;20170;-94
2021/05/11 12:03:24;;;;;;;3.03;1.63;;;;;;;;;;5079702;28;20186;-91
2021/05/11 12:05:52;;;;;;;2.77;1.40;;;;;;;;;;5079032;28;20205;-90
2021/05/11 12:08:21;;;;;;;2.10;1.50;;;;;;;;;;5079549;28;20496;-92
2021/05/11 12:10:48;;;;;;;1.70;1.30;;;;;;;;;;5079293;28;20206;-91
2021/05/11 12:13:17;;;;;;;1.77;1.67;;;;;;;;;;5077525;28;20197;-87
2021/05/11 12:15:44;;;;;;;5.03;1.70;;;;;;;;;;5079945;28;20241;-91
2021/05/11 12:18:14;;;;;;;3.93;1.70;;;;;;;;;;5079308;28;20259;-91
2021/05/11 12:20:40;;;;;;;1.80;1.70;;;;;;;;;;5097510;28;20228;-91
2021/05/11 12:23:08;;;;;;;1.50;1.50;;;;;;;;;;5079357;28;20197;-90
2021/05/11 12:25:36;;;;;;;3.40;1.70;;;;;;;;;;5078394;28;20275;-93
2021/05/11 12:28:02;;;;;;;2.20;1.40;;;;;;;;;;5078679;28;20205;-93
2021/05/11 12:30:36;;;;;;;1.40;1.40;;;;;;;;;;5078923;28;20193;-94
2021/05/11 12:33:03;;;;;;;1.50;1.40;;;;;;;;;;5079164;28;20654;-90
2021/05/11 12:35:29;;;;;;;1.50;1.40;;;;;;;;;;5078914;28;20572;-93
2021/05/11 12:37:57;;;;;;;1.50;1.40;;;;;;;;;;5097277;28;20205;-90
2021/05/11 12:40:28;;;;;;;4.10;3.00;;;;;;;;;;5096735;28;20181;-93
2021/05/11 12:42:56;;;;;;;2.80;2.60;;;;;;;;;;5079048;28;20209;-92
2021/05/11 12:45:23;;;;;;;2.33;2.23;;;;;;;;;;5079303;28;20201;-92
2021/05/11 12:47:52;;;;;;;5.23;3.37;;;;;;;;;;5078933;28;20241;-92
2021/05/11 12:50:20;;;;;;;3.13;2.80;;;;;;;;;;5078186;28;20251;-93
2021/05/11 12:52:48;;;;;;;3.07;2.87;;;;;;;;;;5079033;28;20194;-93
2021/05/11 12:55:21;;;;;;;1.97;1.87;;;;;;;;;;5078567;28;20266;-93
2021/05/11 12:58:08;;;;;;;1.63;1.53;;;;;;;;;;5097342;28;20205;-92
2021/05/11 13:00:43;;;;;;;3.03;2.07;;;;;;;;;;5079870;28;20181;-91
2021/05/11 13:03:19;;;;;;;5.33;1.80;;;;;;;;;;5080087;28;20198;-92
2021/05/11 13:16:53;;;;;;;1.83;1.67;;;;;;;;;;5078157;28;20825;-86
2021/05/11 13:22:24;;;;;;;3.17;1.70;;;;;;;;;;5077922;28;20219;-87
2021/05/11 13:27:39;;;;;;;1.70;1.60;;;;;;;;;;5076789;28;20213;-87
2021/05/11 13:30:15;;;;;;;1.43;1.43;;;;;;;;;;5076664;28;20198;-87
2021/05/11 13:32:53;;;;;;;1.30;1.30;;;;;;;;;;5076854;28;20715;-87
2021/05/11 13:35:19;;;;;;;1.47;1.47;;;;;;;;;;5094830;28;20273;-86
2021/05/11 13:37:45;;;;;;;1.13;1.13;;;;;;;;;;5076687;28;20707;-86
2021/05/11 13:40:12;;;;;;;1.20;1.20;;;;;;;;;;5076071;28;20219;-85
2021/05/11 13:42:38;;;;;;;0.93;0.93;;;;;;;;;;5093868;28;20233;-85
2021/05/11 13:45:05;;;;;;;1.53;1.20;;;;;;;;;;5075996;28;20198;-85
2021/05/11 13:47:31;;;;;;;1.30;1.30;;;;;;;;;;5072755;28;20226;-85
2021/05/11 13:50:01;;;;;;;2.03;1.30;;;;;;;;;;5072303;28;20202;-85
2021/05/11 13:52:27;;;;;;;0.90;0.90;;;;;;;;;;5072601;28;20207;-86
2021/05/11 13:54:56;;;;;;;1.30;1.20;;;;;;;;;;5072062;28;20671;-86
2021/05/11 13:57:32;;;;;;;1.17;1.17;;;;;;;;;;5072534;28;20207;-86
2021/05/11 14:02:52;;;;;;;1.63;1.53;;;;;;;;;;5026806;28;20264;-86
2021/05/11 14:05:19;;;;;;;1.53;1.40;;;;;;;;;;5072566;28;20260;-85
2021/05/11 14:07:45;;;;;;;2.03;1.70;;;;;;;;;;5072753;28;20195;-86
2021/05/11 14:10:11;;;;;;;1.70;1.60;;;;;;;;;;5072976;28;20186;-86
2021/05/11 14:12:37;;;;;;;2.13;1.53;;;;;;;;;;5072652;28;20536;-86
2021/05/11 14:15:05;;;;;;;1.50;1.50;;;;;;;;;;5072547;28;20631;-86
2021/05/11 14:17:31;;;;;;;2.43;1.53;;;;;;;;;;5073736;28;20217;-86
2021/05/11 14:19:57;;;;;;;2.43;1.90;;;;;;;;;;5072204;28;20658;-86
2021/05/11 14:22:25;;;;;;;2.27;1.80;;;;;;;;;;5073742;28;20690;-86
2021/05/11 14:24:51;;;;;;;2.10;2.00;;;;;;;;;;5072609;28;20198;-86
2021/05/11 14:27:17;;;;;;;2.03;1.93;;;;;;;;;;5072978;28;20709;-86
2021/05/11 14:29:44;;;;;;;2.30;2.10;;;;;;;;;;5071956;28;20743;-87
2021/05/11 14:32:10;;;;;;;2.23;2.13;;;;;;;;;;5072668;28;20251;-88
2021/05/11 14:34:36;;;;;;;2.60;2.00;;;;;;;;;;5072317;28;20206;-87
2021/05/11 14:37:03;;;;;;;2.37;2.27;;;;;;;;;;5075143;28;20186;-87
2021/05/11 14:39:30;;;;;;;2.40;2.30;;;;;;;;;;5077555;28;20250;-87
2021/05/11 14:41:56;;;;;;;2.20;2.00;;;;;;;;;;5077167;28;20202;-89
2021/05/11 14:44:23;;;;;;;2.70;2.50;;;;;;;;;;5077771;28;20206;-87
2021/05/11 14:46:50;;;;;;;2.20;2.10;;;;;;;;;;5078400;28;20206;-87
2021/05/11 14:49:16;;;;;;;2.20;2.10;;;;;;;;;;5080007;28;20194;-86
2021/05/11 14:51:42;;;;;;;1.93;1.83;;;;;;;;;;5097916;28;20220;-86
2021/05/11 14:54:11;;;;;;;2.20;2.10;;;;;;;;;;5079869;28;20247;-86
2021/05/11 14:56:39;;;;;;;2.60;1.97;;;;;;;;;;5079920;28;20186;-88
2021/05/11 14:59:06;;;;;;;2.23;2.13;;;;;;;;;;5079532;28;20205;-84
2021/05/11 15:01:32;;;;;;;2.57;2.37;;;;;;;;;;5079602;28;20186;-85
2021/05/11 15:04:00;;;;;;;2.37;2.27;;;;;;;;;;5079121;28;20205;-85
2021/05/11 15:06:26;;;;;;;3.17;2.87;;;;;;;;;;5079817;28;20190;-85
2021/05/11 15:08:52;;;;;;;3.30;3.00;;;;;;;;;;5079180;28;20198;-83
2021/05/11 15:11:19;;;;;;;3.97;3.67;;;;;;;;;;5079049;28;20661;-84
2021/05/11 15:13:47;;;;;;;2.83;2.63;;;;;;;;;;5079039;28;20231;-84
2021/05/11 15:16:19;;;;;;;2.50;2.30;;;;;;;;;;5078834;28;20234;-84
2021/05/11 15:18:45;;;;;;;1.70;1.70;;;;;;;;;;5061625;28;20189;-83
2021/05/11 15:21:11;;;;;;;2.00;1.90;;;;;;;;;;5078546;28;20209;-84
2021/05/11 15:23:38;;;;;;;1.70;1.60;;;;;;;;;;5078902;28;20662;-85
2021/05/11 15:26:04;;;;;;;2.47;2.20;;;;;;;;;;5105541;28;20236;-83
2021/05/11 15:28:30;;;;;;;1.70;1.60;;;;;;;;;;5098837;28;20189;-83
2021/05/11 15:30:57;;;;;;;3.23;1.73;;;;;;;;;;5093331;28;20549;-83
2021/05/11 15:33:25;;;;;;;1.57;1.47;;;;;;;;;;5081692;28;20242;-83
2021/05/11 15:35:51;;;;;;;1.30;1.30;;;;;;;;;;5098939;28;20233;-86
2021/05/11 15:38:17;;;;;;;1.20;1.20;;;;;;;;;;5096647;28;20174;-85
2021/05/11 15:40:43;;;;;;;1.70;1.60;;;;;;;;;;5096422;28;20182;-85
2021/05/11 15:43:10;;;;;;;1.87;1.20;;;;;;;;;;5078539;28;20264;-85
2021/05/11 15:45:36;;;;;;;1.10;1.10;;;;;;;;;;5079267;28;20653;-86
2021/05/11 15:48:06;;;;;;;1.53;1.40;;;;;;;;;;5054533;28;20251;-85
2021/05/11 15:50:34;;;;;;;0.90;0.90;;;;;;;;;;5055009;28;20659;-85
2021/05/11 15:53:02;;;;;;;1.17;0.90;;;;;;;;;;5069054;28;20725;-86
2021/05/11 15:55:28;;;;;;;4.17;1.20;;;;;;;;;;5073249;28;20223;-84
2021/05/11 15:57:55;;;;;;;0.90;0.90;;;;;;;;;;5054614;28;20192;-85
2021/05/11 16:00:22;;;;;;;1.23;0.80;;;;;;;;;;5054550;28;20238;-90
2021/05/11 16:02:48;;;;;;;2.07;1.00;;;;;;;;;;5054183;28;20187;-86
2021/05/11 16:05:16;;;;;;;0.93;0.93;;;;;;;;;;5071820;28;20191;-86
2021/05/11 16:07:42;;;;;;;1.17;1.10;;;;;;;;;;5052641;28;20655;-86
2021/05/11 16:10:09;;;;;;;1.20;1.10;;;;;;;;;;5055900;28;20211;-90
2021/05/11 16:12:36;;;;;;;1.20;1.20;;;;;;;;;;5056164;28;20208;-87
2021/05/11 16:15:07;;;;;;;2.43;1.30;;;;;;;;;;5054659;28;20239;-86
2021/05/11 16:17:33;;;;;;;1.73;1.20;;;;;;;;;;5054899;28;20195;-87
2021/05/11 16:19:59;;;;;;;1.40;1.30;;;;;;;;;;5054773;28;20217;-88
2021/05/11 16:22:26;;;;;;;2.87;1.30;;;;;;;;;;5054667;28;20249;-91
2021/05/11 16:24:52;;;;;;;1.60;1.37;;;;;;;;;;5054628;28;20555;-87
2021/05/11 16:27:19;;;;;;;1.30;1.30;;;;;;;;;;5055604;28;20570;-90
2021/05/11 16:29:46;;;;;;;1.90;1.37;;;;;;;;;;5055367;28;20207;-91
2021/05/11 16:32:12;;;;;;;2.50;1.33;;;;;;;;;;5055332;28;20651;-90
2021/05/11 16:34:39;;;;;;;1.33;1.17;;;;;;;;;;5054580;28;20214;-91
2021/05/11 16:37:06;;;;;;;2.73;1.17;;;;;;;;;;5055026;28;20685;-91
2021/05/11 16:39:33;;;;;;;5.10;1.40;;;;;;;;;;5054328;28;20208;-92
2021/05/11 16:41:59;;;;;;;2.13;1.40;;;;;;;;;;5055119;28;20696;-89
2021/05/11 16:44:25;;;;;;;1.20;1.20;;;;;;;;;;5055604;28;20211;-88
2021/05/11 16:46:52;;;;;;;2.93;1.07;;;;;;;;;;5058088;28;20286;-89
2021/05/11 16:49:18;;;;;;;1.20;1.10;;;;;;;;;;5077934;28;20240;-91
2021/05/11 16:51:44;;;;;;;1.00;1.00;;;;;;;;;;5094775;28;20247;-88
2021/05/11 16:54:10;;;;;;;1.20;1.10;;;;;;;;;;5095713;28;20244;-87
2021/05/11 16:56:37;;;;;;;0.90;0.90;;;;;;;;;;5077269;28;20233;-89
2021/05/11 16:59:03;;;;;;;1.60;0.90;;;;;;;;;;5094880;28;20224;-89
2021/05/11 17:01:30;;;;;;;1.00;1.00;;;;;;;;;;5094255;28;20198;-88
2021/05/11 17:03:56;;;;;;;0.90;0.90;;;;;;;;;;5095172;28;20210;-89
2021/05/11 17:06:22;;;;;;;1.47;0.90;;;;;;;;;;5077018;28;20213;-90
2021/05/11 17:08:48;;;;;;;2.10;1.10;;;;;;;;;;5095636;28;20573;-90
2021/05/11 17:11:14;;;;;;;0.93;0.93;;;;;;;;;;5094788;28;20642;-90
2021/05/11 17:13:42;;;;;;;1.53;1.33;;;;;;;;;;5095046;28;20212;-88
2021/05/11 17:16:08;;;;;;;2.37;1.40;;;;;;;;;;5076794;28;20214;-90
2021/05/11 17:18:34;;;;;;;2.00;1.40;;;;;;;;;;5077596;28;20220;-89
2021/05/11 17:21:01;;;;;;;1.30;1.30;;;;;;;;;;5077322;28;20255;-89
2021/05/11 17:23:27;;;;;;;1.70;1.60;;;;;;;;;;5094547;28;20213;-89
2021/05/11 17:25:53;;;;;;;1.70;1.60;;;;;;;;;;5077269;28;20217;-90
2021/05/11 17:28:20;;;;;;;1.40;1.40;;;;;;;;;;5095671;28;20581;-89
2021/05/11 17:30:54;;;;;;;2.10;1.80;;;;;;;;;;5094895;28;20210;-89
2021/05/11 17:33:20;;;;;;;1.83;1.70;;;;;;;;;;5093943;28;20205;-90
2021/05/11 17:35:46;;;;;;;1.90;1.80;;;;;;;;;;5076421;28;20249;-90
2021/05/11 17:38:18;;;;;;;2.03;1.93;;;;;;;;;;5076411;28;20202;-89
2021/05/11 17:40:44;;;;;;;4.30;1.80;;;;;;;;;;5094493;28;20216;-90
2021/05/11 17:43:10;;;;;;;1.50;1.50;;;;;;;;;;5094644;28;20213;-90
2021/05/11 17:45:39;;;;;;;1.70;1.60;;;;;;;;;;5076668;28;20182;-90